createdAt,value
2017-10-03T00:00:23.981Z,0
2017-10-03T00:01:45.619Z,0
2017-10-03T00:03:07.362Z,0
2017-10-03T00:04:29.376Z,0
2017-10-03T00:05:51.693Z,0
2017-10-03T00:07:13.484Z,0
2017-10-03T00:08:35.443Z,0
2017-10-03T00:09:56.756Z,0
2017-10-03T00:11:18.413Z,0
2017-10-03T00:12:40.032Z,0
2017-10-03T00:14:01.650Z,0
2017-10-03T00:15:22.949Z,0
2017-10-03T00:16:44.744Z,0
2017-10-03T00:18:06.715Z,0
2017-10-03T00:19:28.034Z,0
2017-10-03T00:20:49.168Z,0
2017-10-03T00:22:11.473Z,0
2017-10-03T00:23:32.454Z,0
2017-10-03T00:24:54.142Z,0
2017-10-03T00:26:15.833Z,0
2017-10-03T00:27:38.123Z,0
2017-10-03T00:28:59.443Z,0
2017-10-03T00:30:20.773Z,0
2017-10-03T00:31:42.084Z,0
2017-10-03T00:33:04.076Z,0
2017-10-03T00:34:26.033Z,0
2017-10-03T00:35:47.985Z,0
2017-10-03T00:37:09.943Z,0
2017-10-03T00:38:31.937Z,0
2017-10-03T00:39:53.575Z,0
2017-10-03T00:41:14.560Z,0
2017-10-03T00:42:36.287Z,0
2017-10-03T00:43:58.281Z,0
2017-10-03T00:45:20.233Z,0
2017-10-03T00:46:41.889Z,0
2017-10-03T00:48:03.209Z,0
2017-10-03T00:49:25.157Z,0
2017-10-03T00:50:46.530Z,0
2017-10-03T00:52:08.174Z,0
2017-10-03T00:53:29.173Z,0
2017-10-03T00:54:51.151Z,0
2017-10-03T00:56:12.775Z,0
2017-10-03T00:57:34.405Z,0
2017-10-03T00:58:56.353Z,0
2017-10-03T01:00:18.328Z,0
2017-10-03T01:01:39.629Z,0
2017-10-03T01:03:01.573Z,0
2017-10-03T01:04:22.874Z,0
2017-10-03T01:05:45.419Z,0
2017-10-03T01:07:07.374Z,0
2017-10-03T01:08:28.691Z,0
2017-10-03T01:09:50.527Z,0
2017-10-03T01:11:12.370Z,0
2017-10-03T01:12:33.726Z,0
2017-10-03T01:13:55.363Z,0
2017-10-03T01:15:16.354Z,0
2017-10-03T01:16:37.346Z,0
2017-10-03T01:17:58.988Z,0
2017-10-03T01:19:20.610Z,0
2017-10-03T01:20:42.246Z,0
2017-10-03T01:22:04.583Z,0
2017-10-03T01:23:26.629Z,0
2017-10-03T01:24:47.933Z,0
2017-10-03T01:26:09.879Z,0
2017-10-03T01:27:31.523Z,0
2017-10-03T01:28:53.467Z,0
2017-10-03T01:30:14.813Z,0
2017-10-03T01:31:36.126Z,0
2017-10-03T01:32:58.104Z,0
2017-10-03T01:34:19.098Z,0
2017-10-03T01:35:41.073Z,0
2017-10-03T01:37:03.057Z,0
2017-10-03T01:38:24.493Z,0
2017-10-03T01:39:45.803Z,0
2017-10-03T01:41:07.555Z,0
2017-10-03T01:42:28.873Z,0
2017-10-03T01:43:51.162Z,0
2017-10-03T01:45:12.153Z,0
2017-10-03T01:46:33.885Z,0
2017-10-03T01:47:55.503Z,0
2017-10-03T01:49:17.234Z,0
2017-10-03T01:50:38.531Z,0
2017-10-03T01:52:00.173Z,0
2017-10-03T01:53:22.114Z,0
2017-10-03T01:54:44.101Z,0
2017-10-03T01:56:05.734Z,0
2017-10-03T01:57:27.673Z,0
2017-10-03T01:58:49.289Z,0
2017-10-03T02:00:10.912Z,0
2017-10-03T02:01:32.533Z,0
2017-10-03T02:02:54.473Z,0
2017-10-03T02:04:16.078Z,0
2017-10-03T02:05:38.073Z,0
2017-10-03T02:06:59.520Z,0
2017-10-03T02:08:21.153Z,0
2017-10-03T02:09:42.464Z,0
2017-10-03T02:11:03.753Z,0
2017-10-03T02:12:25.061Z,0
2017-10-03T02:13:47.011Z,0
2017-10-03T02:15:08.333Z,0
2017-10-03T02:16:29.792Z,0
2017-10-03T02:17:50.854Z,0
2017-10-03T02:19:12.199Z,0
2017-10-03T02:20:33.814Z,0
2017-10-03T02:21:56.103Z,0
2017-10-03T02:23:17.399Z,0
2017-10-03T02:24:39.343Z,0
2017-10-03T02:26:01.262Z,0
2017-10-03T02:27:22.974Z,0
2017-10-03T02:28:44.921Z,0
2017-10-03T02:30:06.543Z,0
2017-10-03T02:31:28.260Z,0
2017-10-03T02:32:49.893Z,0
2017-10-03T02:34:11.523Z,0
2017-10-03T02:35:32.834Z,0
2017-10-03T02:36:54.584Z,0
2017-10-03T02:38:16.233Z,0
2017-10-03T02:39:37.523Z,0
2017-10-03T02:40:59.210Z,0
2017-10-03T02:42:20.873Z,0
2017-10-03T02:43:42.799Z,0
2017-10-03T02:45:04.744Z,0
2017-10-03T02:46:26.353Z,0
2017-10-03T02:47:48.393Z,0
2017-10-03T02:49:10.394Z,0
2017-10-03T02:50:31.418Z,0
2017-10-03T02:51:53.090Z,0
2017-10-03T02:53:14.706Z,0
2017-10-03T02:54:36.958Z,0
2017-10-03T02:55:58.593Z,0
2017-10-03T02:57:19.887Z,0
2017-10-03T02:58:41.824Z,0
2017-10-03T03:00:03.448Z,0
2017-10-03T03:01:24.495Z,0
2017-10-03T03:02:46.121Z,0
2017-10-03T03:04:08.068Z,0
2017-10-03T03:05:30.033Z,0
2017-10-03T03:06:51.384Z,0
2017-10-03T03:08:12.994Z,0
2017-10-03T03:09:34.304Z,0
2017-10-03T03:10:55.939Z,0
2017-10-03T03:12:17.556Z,0
2017-10-03T03:13:39.190Z,0
2017-10-03T03:15:01.019Z,0
2017-10-03T03:16:23.031Z,0
2017-10-03T03:17:44.353Z,0
2017-10-03T03:19:06.314Z,0
2017-10-03T03:20:28.263Z,0
2017-10-03T03:21:49.573Z,0
2017-10-03T03:23:11.282Z,0
2017-10-03T03:24:32.614Z,0
2017-10-03T03:25:54.234Z,0
2017-10-03T03:27:15.650Z,0
2017-10-03T03:28:37.272Z,0
2017-10-03T03:29:58.266Z,0
2017-10-03T03:31:19.602Z,0
2017-10-03T03:32:40.616Z,0
2017-10-03T03:34:02.258Z,0
2017-10-03T03:35:23.565Z,0
2017-10-03T03:36:45.201Z,0
2017-10-03T03:38:07.183Z,0
2017-10-03T03:39:28.484Z,0
2017-10-03T03:40:49.805Z,0
2017-10-03T03:42:11.434Z,0
2017-10-03T03:43:33.046Z,0
2017-10-03T03:44:54.680Z,0
2017-10-03T03:46:15.701Z,0
2017-10-03T03:47:36.856Z,0
2017-10-03T03:48:58.864Z,0
2017-10-03T03:50:20.174Z,0
2017-10-03T03:51:41.485Z,0
2017-10-03T03:53:03.290Z,0
2017-10-03T03:54:24.915Z,0
2017-10-03T03:55:46.537Z,0
2017-10-03T03:57:07.968Z,0
2017-10-03T03:58:29.904Z,0
2017-10-03T03:59:51.580Z,0
2017-10-03T04:01:13.215Z,0
2017-10-03T04:02:34.838Z,0
2017-10-03T04:03:56.263Z,0
2017-10-03T04:05:17.654Z,0
2017-10-03T04:06:39.281Z,0
2017-10-03T04:08:00.953Z,0
2017-10-03T04:09:22.244Z,0
2017-10-03T04:10:43.574Z,0
2017-10-03T04:12:04.904Z,0
2017-10-03T04:13:26.552Z,0
2017-10-03T04:14:47.543Z,0
2017-10-03T04:16:08.903Z,0
2017-10-03T04:17:30.838Z,0
2017-10-03T04:18:51.872Z,0
2017-10-03T04:20:13.564Z,0
2017-10-03T04:21:35.551Z,0
2017-10-03T04:22:56.910Z,0
2017-10-03T04:24:18.230Z,0
2017-10-03T04:25:40.285Z,0
2017-10-03T04:27:01.922Z,0
2017-10-03T04:28:23.554Z,0
2017-10-03T04:29:44.211Z,0
2017-10-03T04:31:06.225Z,0
2017-10-03T04:32:27.854Z,0
2017-10-03T04:33:49.164Z,0
2017-10-03T04:35:11.114Z,0
2017-10-03T04:36:33.052Z,0
2017-10-03T04:37:55.025Z,0
2017-10-03T04:39:16.645Z,0
2017-10-03T04:40:38.283Z,0
2017-10-03T04:41:59.694Z,0
2017-10-03T04:43:21.025Z,0
2017-10-03T04:44:42.977Z,0
2017-10-03T04:46:04.296Z,0
2017-10-03T04:47:26.243Z,0
2017-10-03T04:49:01.804Z,0
2017-10-03T04:50:22.776Z,0
2017-10-03T04:51:44.081Z,0
2017-10-03T04:53:06.023Z,0
2017-10-03T04:54:27.036Z,0
2017-10-03T04:55:48.344Z,4
2017-10-03T04:57:09.974Z,4
2017-10-03T04:58:31.282Z,0
2017-10-03T04:59:52.619Z,4
2017-10-03T05:01:14.564Z,4
2017-10-03T05:02:36.204Z,8
2017-10-03T05:03:58.129Z,12
2017-10-03T05:05:19.764Z,12
2017-10-03T05:06:41.515Z,12
2017-10-03T05:08:03.134Z,16
2017-10-03T05:09:24.774Z,20
2017-10-03T05:10:46.394Z,24
2017-10-03T05:12:08.326Z,28
2017-10-03T05:13:29.313Z,36
2017-10-03T05:14:50.623Z,48
2017-10-03T05:16:12.290Z,60
2017-10-03T05:17:34.244Z,72
2017-10-03T05:18:55.554Z,88
2017-10-03T05:20:16.617Z,108
2017-10-03T05:21:37.613Z,128
2017-10-03T05:22:58.936Z,152
2017-10-03T05:24:20.559Z,176
2017-10-03T05:25:42.245Z,208
2017-10-03T05:27:04.564Z,236
2017-10-03T05:28:25.544Z,264
2017-10-03T05:29:47.485Z,288
2017-10-03T05:31:09.114Z,320
2017-10-03T05:32:30.874Z,364
2017-10-03T05:33:52.486Z,416
2017-10-03T05:35:14.109Z,472
2017-10-03T05:36:35.735Z,536
2017-10-03T05:37:57.417Z,604
2017-10-03T05:39:19.452Z,684
2017-10-03T05:40:41.073Z,764
2017-10-03T05:42:02.430Z,844
2017-10-03T05:43:23.551Z,916
2017-10-03T05:44:44.865Z,988
2017-10-03T05:46:06.194Z,1060
2017-10-03T05:47:27.824Z,1132
2017-10-03T05:48:50.448Z,1208
2017-10-03T05:50:12.082Z,1292
2017-10-03T05:51:33.383Z,1384
2017-10-03T05:52:55.017Z,1500
2017-10-03T05:54:17.305Z,1632
2017-10-03T05:55:38.626Z,1752
2017-10-03T05:57:00.380Z,1868
2017-10-03T05:58:21.996Z,1988
2017-10-03T05:59:43.642Z,2120
2017-10-03T06:01:05.024Z,2236
2017-10-03T06:02:26.974Z,2348
2017-10-03T06:03:48.319Z,2468
2017-10-03T06:05:10.281Z,2580
2017-10-03T06:06:32.231Z,2736
2017-10-03T06:07:53.840Z,2952
2017-10-03T06:09:14.937Z,3268
2017-10-03T06:10:36.544Z,3984
2017-10-03T06:11:57.847Z,4816
2017-10-03T06:13:19.490Z,4932
2017-10-03T06:14:40.823Z,4956
2017-10-03T06:16:02.432Z,4908
2017-10-03T06:17:24.093Z,4912
2017-10-03T06:18:45.426Z,4716
2017-10-03T06:20:07.474Z,2812
2017-10-03T06:21:28.814Z,2728
2017-10-03T06:22:50.765Z,2748
2017-10-03T06:24:12.065Z,2832
2017-10-03T06:25:33.828Z,2972
2017-10-03T06:26:55.460Z,3252
2017-10-03T06:28:17.086Z,3716
2017-10-03T06:29:38.384Z,5456
2017-10-03T06:30:59.839Z,6424
2017-10-03T06:32:21.822Z,6912
2017-10-03T06:33:43.574Z,6200
2017-10-03T06:35:05.333Z,6284
2017-10-03T06:36:26.626Z,6756
2017-10-03T06:37:47.975Z,7728
2017-10-03T06:39:09.943Z,8804
2017-10-03T06:40:31.243Z,7948
2017-10-03T06:41:53.193Z,8996
2017-10-03T06:43:14.803Z,6076
2017-10-03T06:44:36.102Z,7312
2017-10-03T06:45:57.743Z,4812
2017-10-03T06:47:19.485Z,4772
2017-10-03T06:48:41.587Z,4844
2017-10-03T06:50:03.564Z,5364
2017-10-03T06:51:25.223Z,5332
2017-10-03T06:52:46.845Z,5008
2017-10-03T06:54:08.834Z,6064
2017-10-03T06:55:30.821Z,4428
2017-10-03T06:56:52.807Z,4248
2017-10-03T06:58:14.767Z,4184
2017-10-03T06:59:37.060Z,4240
2017-10-03T07:00:58.763Z,4404
2017-10-03T07:02:20.713Z,5792
2017-10-03T07:03:42.760Z,8468
2017-10-03T07:05:04.813Z,7332
2017-10-03T07:06:26.776Z,7060
2017-10-03T07:07:48.083Z,4824
2017-10-03T07:09:10.137Z,5620
2017-10-03T07:10:32.186Z,7168
2017-10-03T07:11:53.804Z,7688
2017-10-03T07:13:15.435Z,7876
2017-10-03T07:14:37.171Z,9120
2017-10-03T07:15:58.847Z,8948
2017-10-03T07:17:20.796Z,7800
2017-10-03T07:18:42.789Z,7200
2017-10-03T07:20:04.110Z,6876
2017-10-03T07:21:25.769Z,6132
2017-10-03T07:22:47.813Z,5488
2017-10-03T07:24:09.774Z,4888
2017-10-03T07:25:31.424Z,4408
2017-10-03T07:26:52.754Z,4360
2017-10-03T07:28:14.059Z,4372
2017-10-03T07:29:36.073Z,4344
2017-10-03T07:30:57.750Z,4712
2017-10-03T07:32:19.422Z,5112
2017-10-03T07:33:41.054Z,5420
2017-10-03T07:35:02.352Z,5592
2017-10-03T07:36:24.053Z,6332
2017-10-03T07:37:46.088Z,6744
2017-10-03T07:39:07.098Z,6732
2017-10-03T07:40:28.724Z,6448
2017-10-03T07:41:50.418Z,5780
2017-10-03T07:43:12.394Z,5876
2017-10-03T07:44:33.744Z,6236
2017-10-03T07:45:55.735Z,6156
2017-10-03T07:47:17.419Z,5908
2017-10-03T07:48:39.732Z,5760
2017-10-03T07:50:01.716Z,5624
2017-10-03T07:51:23.355Z,5592
2017-10-03T07:52:45.003Z,5592
2017-10-03T07:54:06.823Z,5472
2017-10-03T07:55:28.552Z,5324
2017-10-03T07:56:50.324Z,5308
2017-10-03T07:58:12.304Z,5416
2017-10-03T07:59:34.298Z,5384
2017-10-03T08:00:55.931Z,5340
2017-10-03T08:02:16.903Z,5176
2017-10-03T08:03:38.956Z,5292
2017-10-03T08:05:01.256Z,5292
2017-10-03T08:06:22.576Z,5340
2017-10-03T08:07:44.553Z,5448
2017-10-03T08:09:06.186Z,5488
2017-10-03T08:10:27.475Z,5452
2017-10-03T08:11:48.801Z,5616
2017-10-03T08:13:10.792Z,5620
2017-10-03T08:14:32.813Z,5784
2017-10-03T08:15:54.803Z,5752
2017-10-03T08:17:16.111Z,5920
2017-10-03T08:18:37.848Z,5696
2017-10-03T08:19:59.903Z,5560
2017-10-03T08:21:21.550Z,5628
2017-10-03T08:22:43.169Z,5616
2017-10-03T08:24:04.643Z,5696
2017-10-03T08:25:26.614Z,5724
2017-10-03T08:26:48.628Z,5544
2017-10-03T08:28:10.276Z,6380
2017-10-03T08:29:32.250Z,8460
2017-10-03T08:30:53.896Z,6268
2017-10-03T08:32:15.833Z,5204
2017-10-03T08:33:37.765Z,6104
2017-10-03T08:34:59.744Z,6128
2017-10-03T08:36:21.714Z,8036
2017-10-03T08:37:43.334Z,9284
2017-10-03T08:39:05.815Z,9656
2017-10-03T08:40:28.312Z,8348
2017-10-03T08:41:50.785Z,7336
2017-10-03T08:43:12.655Z,6380
2017-10-03T08:44:35.154Z,6420
2017-10-03T08:45:56.987Z,6492
2017-10-03T08:47:18.523Z,7048
2017-10-03T08:48:40.684Z,7136
2017-10-03T08:50:02.512Z,6124
2017-10-03T08:51:24.827Z,7480
2017-10-03T08:52:47.409Z,7548
2017-10-03T08:54:09.549Z,7472
2017-10-03T08:55:31.697Z,6960
2017-10-03T08:56:53.521Z,7404
2017-10-03T08:58:15.324Z,7748
2017-10-03T08:59:37.802Z,6512
2017-10-03T09:00:59.977Z,5984
2017-10-03T09:02:22.459Z,6028
2017-10-03T09:03:44.943Z,6476
2017-10-03T09:05:07.466Z,6924
2017-10-03T09:06:29.303Z,10928
2017-10-03T09:07:51.456Z,8608
2017-10-03T09:09:13.907Z,7944
2017-10-03T09:10:36.049Z,10676
2017-10-03T09:11:57.885Z,11960
2017-10-03T09:13:20.441Z,10996
2017-10-03T09:14:42.261Z,9824
2017-10-03T09:16:04.785Z,8356
2017-10-03T09:17:26.943Z,9168
2017-10-03T09:18:48.142Z,8192
2017-10-03T09:20:10.734Z,7364
2017-10-03T09:21:32.876Z,7304
2017-10-03T09:22:54.824Z,8456
2017-10-03T09:24:17.061Z,11448
2017-10-03T09:25:38.977Z,11952
2017-10-03T09:27:01.789Z,12656
2017-10-03T09:28:23.613Z,12496
2017-10-03T09:29:46.073Z,11104
2017-10-03T09:31:08.308Z,11068
2017-10-03T09:32:30.464Z,12248
2017-10-03T09:33:52.145Z,11376
2017-10-03T09:35:14.323Z,9832
2017-10-03T09:36:36.785Z,10124
2017-10-03T09:37:58.615Z,11600
2017-10-03T09:39:21.124Z,11064
2017-10-03T09:40:43.282Z,9288
2017-10-03T09:42:05.467Z,7320
2017-10-03T09:43:27.989Z,10384
2017-10-03T09:44:50.471Z,11712
2017-10-03T09:46:12.607Z,11880
2017-10-03T09:47:35.137Z,10804
2017-10-03T09:48:56.984Z,8124
2017-10-03T09:50:18.823Z,7504
2017-10-03T09:51:41.323Z,8984
2017-10-03T09:53:03.463Z,7880
2017-10-03T09:54:25.297Z,7104
2017-10-03T09:55:47.207Z,7624
2017-10-03T09:57:09.354Z,7504
2017-10-03T09:58:31.566Z,7476
2017-10-03T09:59:54.095Z,7004
2017-10-03T10:01:16.714Z,7844
2017-10-03T10:02:39.246Z,7984
2017-10-03T10:04:01.421Z,8600
2017-10-03T10:05:23.887Z,9552
2017-10-03T10:06:46.570Z,8756
2017-10-03T10:08:08.524Z,10660
2017-10-03T10:09:30.764Z,11436
2017-10-03T10:10:52.611Z,11480
2017-10-03T10:12:14.142Z,11468
2017-10-03T10:13:36.326Z,11368
2017-10-03T10:14:58.165Z,12588
2017-10-03T10:16:20.644Z,14700
2017-10-03T10:17:42.795Z,15004
2017-10-03T10:19:05.176Z,12168
2017-10-03T10:20:27.004Z,10436
2017-10-03T10:21:49.217Z,8252
2017-10-03T10:23:11.484Z,7548
2017-10-03T10:24:33.962Z,7780
2017-10-03T10:25:56.431Z,6452
2017-10-03T10:27:18.943Z,6980
2017-10-03T10:28:40.604Z,8064
2017-10-03T10:30:02.110Z,7204
2017-10-03T10:31:23.303Z,7908
2017-10-03T10:32:45.476Z,10784
2017-10-03T10:34:07.651Z,11464
2017-10-03T10:35:29.813Z,12248
2017-10-03T10:36:51.647Z,12868
2017-10-03T10:38:14.113Z,12260
2017-10-03T10:39:36.696Z,9164
2017-10-03T10:40:58.550Z,9992
2017-10-03T10:42:20.713Z,8964
2017-10-03T10:43:43.212Z,9216
2017-10-03T10:45:05.085Z,13148
2017-10-03T10:46:27.267Z,13488
2017-10-03T10:47:49.427Z,14408
2017-10-03T10:49:10.938Z,13944
2017-10-03T10:50:32.171Z,11652
2017-10-03T10:51:54.740Z,9168
2017-10-03T10:53:16.924Z,8572
2017-10-03T10:54:39.094Z,8404
2017-10-03T10:56:00.924Z,8432
2017-10-03T10:57:23.094Z,9428
2017-10-03T10:58:45.123Z,10768
2017-10-03T11:00:07.561Z,11192
2017-10-03T11:01:30.094Z,12416
2017-10-03T11:02:52.557Z,12760
2017-10-03T11:04:14.429Z,12076
2017-10-03T11:05:36.888Z,10792
2017-10-03T11:06:59.036Z,11784
2017-10-03T11:08:21.185Z,12520
2017-10-03T11:09:43.365Z,12864
2017-10-03T11:11:06.024Z,12836
2017-10-03T11:12:27.904Z,11552
2017-10-03T11:13:50.143Z,7784
2017-10-03T11:15:12.305Z,4712
2017-10-03T11:16:34.713Z,4704
2017-10-03T11:17:56.582Z,6136
2017-10-03T11:19:18.743Z,8596
2017-10-03T11:20:40.596Z,10136
2017-10-03T11:22:03.203Z,10700
2017-10-03T11:23:25.782Z,9888
2017-10-03T11:24:47.604Z,8328
2017-10-03T11:26:09.764Z,6972
2017-10-03T11:27:31.609Z,6408
2017-10-03T11:28:53.436Z,6156
2017-10-03T11:30:15.912Z,5628
2017-10-03T11:31:38.124Z,5160
2017-10-03T11:33:00.644Z,4936
2017-10-03T11:34:22.574Z,4792
2017-10-03T11:35:45.053Z,4704
2017-10-03T11:37:06.887Z,4652
2017-10-03T11:38:29.172Z,4632
2017-10-03T11:39:51.340Z,4872
2017-10-03T11:41:13.494Z,5552
2017-10-03T11:42:35.664Z,4884
2017-10-03T11:43:57.842Z,4700
2017-10-03T11:45:20.424Z,4708
2017-10-03T11:46:42.367Z,4856
2017-10-03T11:48:04.844Z,5088
2017-10-03T11:49:27.018Z,5100
2017-10-03T11:50:49.212Z,5360
2017-10-03T11:52:11.403Z,5756
2017-10-03T11:53:33.593Z,5688
2017-10-03T11:54:56.173Z,6532
2017-10-03T11:56:17.996Z,7036
2017-10-03T11:57:39.814Z,7516
2017-10-03T11:59:02.522Z,8532
2017-10-03T12:00:25.336Z,8948
2017-10-03T12:01:46.941Z,7752
2017-10-03T12:03:09.112Z,5424
2017-10-03T12:04:30.944Z,7088
2017-10-03T12:05:52.802Z,8964
2017-10-03T12:07:14.364Z,7380
2017-10-03T12:08:36.871Z,6660
2017-10-03T12:09:59.368Z,6020
2017-10-03T12:11:22.193Z,5852
2017-10-03T12:12:44.772Z,6248
2017-10-03T12:14:07.241Z,7252
2017-10-03T12:15:29.412Z,7264
2017-10-03T12:16:51.554Z,6376
2017-10-03T12:18:13.709Z,5432
2017-10-03T12:19:35.871Z,4872
2017-10-03T12:20:57.761Z,4928
2017-10-03T12:22:20.587Z,4752
2017-10-03T12:23:42.998Z,4616
2017-10-03T12:25:04.833Z,4312
2017-10-03T12:26:27.018Z,4456
2017-10-03T12:27:49.254Z,4592
2017-10-03T12:29:11.852Z,4428
2017-10-03T12:30:33.995Z,4252
2017-10-03T12:31:56.164Z,4216
2017-10-03T12:33:18.664Z,4240
2017-10-03T12:34:40.845Z,4408
2017-10-03T12:36:02.999Z,4708
2017-10-03T12:37:25.524Z,5468
2017-10-03T12:38:48.044Z,6980
2017-10-03T12:40:10.591Z,7900
2017-10-03T12:41:32.091Z,8100
2017-10-03T12:42:54.864Z,8216
2017-10-03T12:44:17.009Z,8476
2017-10-03T12:45:39.153Z,7796
2017-10-03T12:47:01.371Z,7416
2017-10-03T12:48:23.864Z,6604
2017-10-03T12:49:46.365Z,6036
2017-10-03T12:51:08.826Z,5708
2017-10-03T12:52:31.281Z,5460
2017-10-03T12:53:53.531Z,5316
2017-10-03T12:55:15.726Z,5208
2017-10-03T12:56:38.177Z,5116
2017-10-03T12:58:00.044Z,5164
2017-10-03T12:59:22.526Z,4956
2017-10-03T13:00:44.685Z,4864
2017-10-03T13:02:06.524Z,4828
2017-10-03T13:03:28.984Z,4800
2017-10-03T13:04:51.149Z,4796
2017-10-03T13:06:13.273Z,4808
2017-10-03T13:07:35.834Z,4776
2017-10-03T13:08:58.295Z,4960
2017-10-03T13:10:20.443Z,4836
2017-10-03T13:11:42.927Z,4836
2017-10-03T13:13:05.524Z,4928
2017-10-03T13:14:27.664Z,5052
2017-10-03T13:15:50.156Z,5316
2017-10-03T13:17:12.956Z,5784
2017-10-03T13:18:35.098Z,5288
2017-10-03T13:19:56.973Z,5188
2017-10-03T13:21:19.104Z,5512
2017-10-03T13:22:41.637Z,6132
2017-10-03T13:24:04.120Z,8200
2017-10-03T13:25:26.606Z,9788
2017-10-03T13:26:49.104Z,12140
2017-10-03T13:28:11.575Z,13976
2017-10-03T13:29:33.801Z,13232
2017-10-03T13:30:55.297Z,12900
2017-10-03T13:32:17.799Z,12452
2017-10-03T13:33:40.129Z,11732
2017-10-03T13:35:01.984Z,11780
2017-10-03T13:36:24.171Z,11016
2017-10-03T13:37:46.383Z,9872
2017-10-03T13:39:08.224Z,8272
2017-10-03T13:40:30.517Z,6128
2017-10-03T13:41:53.002Z,5480
2017-10-03T13:43:15.165Z,6048
2017-10-03T13:44:37.401Z,7108
2017-10-03T13:45:59.233Z,8880
2017-10-03T13:47:21.741Z,10272
2017-10-03T13:48:44.241Z,10060
2017-10-03T13:50:06.781Z,7832
2017-10-03T13:51:28.592Z,5776
2017-10-03T13:52:50.600Z,4760
2017-10-03T13:54:12.586Z,4544
2017-10-03T13:55:34.456Z,4576
2017-10-03T13:56:56.680Z,4452
2017-10-03T13:58:18.924Z,4384
2017-10-03T13:59:41.115Z,4352
2017-10-03T14:01:03.793Z,4328
2017-10-03T14:02:26.326Z,3752
2017-10-03T14:03:48.613Z,3796
2017-10-03T14:05:11.102Z,3908
2017-10-03T14:06:33.596Z,4132
2017-10-03T14:07:56.075Z,4840
2017-10-03T14:09:18.213Z,5296
2017-10-03T14:10:40.074Z,5392
2017-10-03T14:12:02.745Z,5112
2017-10-03T14:13:24.914Z,5156
2017-10-03T14:14:47.085Z,5464
2017-10-03T14:16:09.281Z,5840
2017-10-03T14:17:31.429Z,6400
2017-10-03T14:18:53.769Z,6904
2017-10-03T14:20:15.620Z,7032
2017-10-03T14:21:37.487Z,6860
2017-10-03T14:22:59.315Z,6788
2017-10-03T14:24:21.694Z,6576
2017-10-03T14:25:44.206Z,5544
2017-10-03T14:27:06.671Z,4656
2017-10-03T14:28:29.224Z,3500
2017-10-03T14:29:51.402Z,3116
2017-10-03T14:31:13.875Z,3524
2017-10-03T14:32:36.335Z,4480
2017-10-03T14:33:58.908Z,5324
2017-10-03T14:35:21.075Z,5488
2017-10-03T14:36:43.625Z,5172
2017-10-03T14:38:06.115Z,4904
2017-10-03T14:39:28.929Z,4892
2017-10-03T14:40:51.089Z,5204
2017-10-03T14:42:12.994Z,5588
2017-10-03T14:43:35.495Z,5996
2017-10-03T14:44:58.368Z,6764
2017-10-03T14:46:20.224Z,7144
2017-10-03T14:47:42.726Z,6800
2017-10-03T14:49:05.214Z,5576
2017-10-03T14:50:27.400Z,4504
2017-10-03T14:51:49.895Z,3900
2017-10-03T14:53:12.476Z,3808
2017-10-03T14:54:34.963Z,4068
2017-10-03T14:55:57.474Z,4300
2017-10-03T14:57:20.031Z,4748
2017-10-03T14:58:42.514Z,4968
2017-10-03T15:00:04.334Z,4932
2017-10-03T15:01:26.214Z,4888
2017-10-03T15:02:48.401Z,4876
2017-10-03T15:04:10.571Z,5048
2017-10-03T15:05:32.744Z,5308
2017-10-03T15:06:54.940Z,5384
2017-10-03T15:08:16.853Z,5284
2017-10-03T15:09:39.333Z,5324
2017-10-03T15:11:01.890Z,5288
2017-10-03T15:12:23.764Z,5148
2017-10-03T15:13:45.620Z,4904
2017-10-03T15:15:07.454Z,4520
2017-10-03T15:16:29.657Z,4248
2017-10-03T15:17:52.174Z,4080
2017-10-03T15:19:14.674Z,3916
2017-10-03T15:20:36.515Z,3724
2017-10-03T15:21:59.133Z,3564
2017-10-03T15:23:21.351Z,3480
2017-10-03T15:24:43.848Z,3400
2017-10-03T15:26:06.352Z,3336
2017-10-03T15:27:28.971Z,3280
2017-10-03T15:28:51.813Z,3228
2017-10-03T15:30:14.021Z,3164
2017-10-03T15:31:36.187Z,2988
2017-10-03T15:32:58.346Z,2816
2017-10-03T15:34:20.497Z,2788
2017-10-03T15:35:42.832Z,2720
2017-10-03T15:37:05.395Z,2676
2017-10-03T15:38:27.884Z,2680
2017-10-03T15:39:50.111Z,2744
2017-10-03T15:41:12.601Z,2792
2017-10-03T15:42:35.164Z,2664
2017-10-03T15:43:57.312Z,2544
2017-10-03T15:45:19.154Z,2544
2017-10-03T15:46:41.632Z,2640
2017-10-03T15:48:03.256Z,2732
2017-10-03T15:49:25.336Z,2804
2017-10-03T15:50:47.343Z,2960
2017-10-03T15:52:08.963Z,3048
2017-10-03T15:53:30.601Z,2916
2017-10-03T15:54:52.243Z,2784
2017-10-03T15:56:14.216Z,2704
2017-10-03T15:57:36.173Z,2716
2017-10-03T15:58:57.565Z,2676
2017-10-03T16:00:19.205Z,2896
2017-10-03T16:01:40.531Z,3372
2017-10-03T16:03:02.171Z,3388
2017-10-03T16:04:23.495Z,2932
2017-10-03T16:05:44.819Z,2760
2017-10-03T16:07:06.460Z,2808
2017-10-03T16:08:28.136Z,2728
2017-10-03T16:09:50.100Z,2396
2017-10-03T16:11:12.111Z,1972
2017-10-03T16:12:34.125Z,1688
2017-10-03T16:13:56.094Z,1440
2017-10-03T16:15:18.122Z,1296
2017-10-03T16:16:39.878Z,1164
2017-10-03T16:18:01.643Z,1144
2017-10-03T16:19:23.613Z,1104
2017-10-03T16:20:45.583Z,1072
2017-10-03T16:22:07.565Z,1072
2017-10-03T16:23:29.786Z,1104
2017-10-03T16:24:51.105Z,1128
2017-10-03T16:26:12.807Z,1100
2017-10-03T16:27:34.752Z,1024
2017-10-03T16:28:56.402Z,1028
2017-10-03T16:30:18.092Z,1068
2017-10-03T16:31:40.044Z,1092
2017-10-03T16:33:02.024Z,1084
2017-10-03T16:34:23.014Z,996
2017-10-03T16:35:45.114Z,912
2017-10-03T16:37:07.159Z,860
2017-10-03T16:38:29.121Z,812
2017-10-03T16:39:51.102Z,740
2017-10-03T16:41:12.752Z,688
2017-10-03T16:42:34.427Z,664
2017-10-03T16:43:56.407Z,624
2017-10-03T16:45:18.885Z,560
2017-10-03T16:46:40.182Z,480
2017-10-03T16:48:01.816Z,412
2017-10-03T16:49:23.465Z,364
2017-10-03T16:50:45.452Z,320
2017-10-03T16:52:07.081Z,272
2017-10-03T16:53:28.524Z,244
2017-10-03T16:54:50.160Z,212
2017-10-03T16:56:11.834Z,180
2017-10-03T16:57:33.513Z,156
2017-10-03T16:58:55.163Z,132
2017-10-03T17:00:16.482Z,108
2017-10-03T17:01:38.156Z,96
2017-10-03T17:03:00.110Z,76
2017-10-03T17:04:22.181Z,60
2017-10-03T17:05:44.183Z,44
2017-10-03T17:07:06.153Z,32
2017-10-03T17:08:27.783Z,28
2017-10-03T17:09:49.457Z,20
2017-10-03T17:11:11.422Z,20
2017-10-03T17:12:33.383Z,20
2017-10-03T17:13:54.763Z,12
2017-10-03T17:15:16.095Z,12
2017-10-03T17:17:09.562Z,8
2017-10-03T17:18:31.554Z,8
2017-10-03T17:19:53.576Z,8
2017-10-03T17:21:15.330Z,4
2017-10-03T17:22:37.299Z,4
2017-10-03T17:23:58.631Z,4
2017-10-03T17:25:20.580Z,4
2017-10-03T17:26:42.257Z,4
2017-10-03T17:28:03.974Z,0
2017-10-03T17:29:25.040Z,0
2017-10-03T17:30:46.702Z,0
2017-10-03T17:32:08.033Z,0
2017-10-03T17:33:29.360Z,0
2017-10-03T17:34:51.413Z,0
2017-10-03T17:36:12.465Z,0
2017-10-03T17:37:34.435Z,0
2017-10-03T17:38:56.088Z,0
2017-10-03T17:40:18.230Z,0
2017-10-03T17:41:39.245Z,0
2017-10-03T17:43:01.219Z,0
2017-10-03T17:44:23.142Z,0
2017-10-03T17:45:44.527Z,0
2017-10-03T17:47:06.188Z,0
2017-10-03T17:48:27.643Z,0
2017-10-03T17:49:49.309Z,0
2017-10-03T17:51:11.639Z,0
2017-10-03T17:52:33.650Z,0
2017-10-03T17:53:55.323Z,0
2017-10-03T17:55:16.988Z,0
2017-10-03T17:56:39.363Z,0
2017-10-03T17:58:01.082Z,0
2017-10-03T17:59:22.741Z,0
2017-10-03T18:00:44.731Z,0
2017-10-03T18:02:06.839Z,0
2017-10-03T18:03:28.865Z,0
2017-10-03T18:04:50.514Z,0
2017-10-03T18:06:12.567Z,0
2017-10-03T18:07:34.265Z,0
2017-10-03T18:08:56.293Z,0
2017-10-03T18:10:17.938Z,0
2017-10-03T18:11:39.953Z,0
2017-10-03T18:13:01.646Z,0
2017-10-03T18:14:23.636Z,0
2017-10-03T18:15:45.288Z,0
2017-10-03T18:17:07.285Z,0
2017-10-03T18:18:29.538Z,0
2017-10-03T18:19:51.560Z,0
2017-10-03T18:21:12.933Z,0
2017-10-03T18:22:34.283Z,0
2017-10-03T18:23:55.956Z,0
2017-10-03T18:25:17.596Z,0
2017-10-03T18:26:39.269Z,0
2017-10-03T18:28:00.644Z,0
2017-10-03T18:29:22.286Z,0
2017-10-03T18:30:44.019Z,0
2017-10-03T18:32:06.000Z,0
2017-10-03T18:33:27.683Z,0
2017-10-03T18:34:48.755Z,0
2017-10-03T18:36:10.501Z,0
2017-10-03T18:37:32.593Z,0
2017-10-03T18:38:54.587Z,0
2017-10-03T18:40:16.304Z,0
2017-10-03T18:41:38.395Z,0
2017-10-03T18:42:59.868Z,0
2017-10-03T18:44:21.359Z,0
2017-10-03T18:45:43.396Z,0
2017-10-03T18:47:05.456Z,0
2017-10-03T18:48:27.177Z,0
2017-10-03T18:49:49.160Z,0
2017-10-03T18:51:11.586Z,0